28 września 2022

Czas Kod Pogoda Temp. Widoczność Sufit Wiatr METAR/SPECI
15:20
V
13 °C 10 km+ - 250° 250° 7 kt METAR ETMN 281320Z 25007KT 9999 SCT020 SCT240 13/07 Q0996 BLU+BLU
14:20
V
12 °C 10 km+ - 220° 220° 5 kt METAR ETMN 281220Z 22005KT 9999 SCT020 12/07 Q0996 BLU+BLU
13:20
V
11 °C 10 km+ - 240° 240° 5 kt METAR ETMN 281120Z 24005KT 9999 SCT015 11/07 Q0995 BLU+BLU
12:20
V
11 °C 10 km+ 20.000 ft 210° 210° 6 kt METAR ETMN 281020Z 21006KT 9999 FEW009 SCT140 BKN200 11/08 Q0995 BLU+BLU
11:20
V
9 °C 8 km 4.800 ft 200° 200° 4 kt METAR ETMN 280920Z 20004KT 8000 FEW002 BKN048 BKN110 09/09 Q0995 BLU BLU TEMPO YLO
11:06
M
8 °C 7 km 11.000 ft 210° 210° 5 kt METAR ETMN 280906Z 21005KT 7000 SCT002 SCT048 BKN110 08/08 Q0995 WHT WHT TEMPO AMB
10:38
L
8 °C 5 km 200 ft 220° 220° 4 kt METAR ETMN 280838Z 22004KT 5000 BR BKN002 08/08 Q0995 AMB YLO TEMPO RED
10:20
L
8 °C 3,7 km 200 ft 220° 220° 4 kt METAR ETMN 280820Z 22004KT 3700 BR BKN002 08/07 Q0995 AMB YLO TEMPO RED
10:03
L
8 °C 3 km 200 ft Var Var 3 kt METAR ETMN 280803Z VRB03KT 3000 BR BKN002 08/07 Q0995 AMB YLO TEMPO RED
09:36
I
7 °C 2 km - 230° 230° 4 kt METAR ETMN 280736Z 23004KT 2000 BCFG BR SCT001 SCT120 07/07 Q0994 YLO YLO TEMPO RED
09:27
L
7 °C 900 m 100 ft 230° 230° 5 kt METAR ETMN 280727Z 23005KT 0900 R26///// FG BKN001 SCT120 07/06 Q0994 RED RED
09:20
L
7 °C 500 m 100 ft 220° 220° 7 kt METAR ETMN 280720Z 22007KT 0500 R26/1300U FG BKN001 07/06 Q0994 RED RED
08:20
L
6 °C 200 m 100 ft 210° 210° 5 kt METAR ETMN 280620Z 21005KT 0200 R26/0500/ FG OVC001 06/06 Q0994 RED YLO TEMPO RED
07:58
L
6 °C 300 m 100 ft 210° 210° 6 kt METAR ETMN 280558Z 21006KT 0300 R26/1500D FG OVC001 06/05 Q0994 RED BLU TEMPO RED
07:52
L
6 °C 1,2 km 100 ft 210° 210° 5 kt METAR ETMN 280552Z 21005KT 1200 R26/5000U PRFG BR BKN001 06/05 Q0994 RED BLU TEMPO RED
07:20
L
5 °C 1,2 km 16.000 ft 200° 200° 6 kt METAR ETMN 280520Z 20006KT 1200 R26/9999N PRFG BR FEW001 SCT055 BKN160 05/05 Q0994 AMB BLU TEMPO RED
06:38
I
6 °C 2 km 18.000 ft 200° 200° 6 kt METAR ETMN 280438Z 20006KT 2000 VCFG BR SCT001 SCT055 BKN180 06/06 Q0994 YLO BLU TEMPO RED
06:20
I
6 °C 3,5 km 18.000 ft 210° 210° 5 kt METAR ETMN 280420Z 21005KT 3500 VCFG BR SCT055 BKN180 06/06 Q0994 YLO
05:20
V
6 °C 10 km+ 20.000 ft 200° 200° 4 kt METAR ETMN 280320Z 20004KT 9999 SCT050 BKN200 06/06 Q0994 BLU+
04:20
V
7 °C 10 km+ 5.200 ft 210° 210° 3 kt METAR ETMN 280220Z 21003KT 9999 BKN052 07/07 Q0994 BLU
03:20
V
7 °C 10 km+ 5.000 ft 210° 210° 5 kt METAR ETMN 280120Z 21005KT 9999 FEW009 BKN050 07/07 Q0994 BLU
02:20
V
8 °C 10 km+ 4.500 ft 200° 200° 4 kt METAR ETMN 280020Z 20004KT 9999 SCT009 BKN045 08/07 Q0994 BLU
01:20
I
8 °C 9 km 700 ft 210° 210° 5 kt METAR ETMN 272320Z 21005KT 9000 BKN007 BKN047 08/07 Q0994 GRN
00:43
I
8 °C 6 km 500 ft 220° 220° 5 kt METAR ETMN 272243Z 22005KT 6000 FEW003 BKN005 08/08 Q0995 YLO
00:20
L
8 °C 4,5 km 400 ft 210° 210° 5 kt METAR ETMN 272220Z 21005KT 4500 BR FEW002 BKN004 BKN008 08/07 Q0995 YLO

27 września 2022

Czas Kod Pogoda Temp. Widoczność Sufit Wiatr METAR/SPECI
23:44
I
7 °C 4,5 km 600 ft 210° 210° 5 kt METAR ETMN 272144Z 21005KT 4500 BR FEW001 BKN006 BKN044 07/07 Q0995 YLO
23:20
V
7 °C 10 km+ - 210° 210° 4 kt METAR ETMN 272120Z 21004KT 9999 SCT043 SCT180 07/07 Q0995 BLU+
22:20
V
8 °C 10 km+ 22.000 ft 220° 220° 6 kt METAR ETMN 272020Z 22006KT 9999 SCT009 SCT030 BKN220 08/07 Q0995 BLU+
21:20
V
8 °C 10 km+ - 230° 230° 4 kt METAR ETMN 271920Z 23004KT 9999 FEW017 08/07 Q0995 BLU+
20:20
V
9 °C 10 km+ 3.500 ft 250° 250° 3 kt METAR ETMN 271820Z 25003KT 9999 FEW011 SCT018 BKN035 09/08 Q0995 BLU
19:50
V
9 °C 10 km+ 6.000 ft 250° 250° 5 kt METAR ETMN 271750Z 25005KT 9999 VCSH SCT011 BKN060 BKN170 09/08 Q0995 BLU FCST CNL
19:20
V
10 °C 9 km 7.000 ft 250° 250° 9 kt METAR ETMN 271720Z 25009KT 9000 VCSH FEW011 SCT040 BKN070 10/08 Q0994 BLU BLU TEMPO GRN
18:20
V
10 °C 9 km 4.000 ft 200° 200° 3 kt METAR ETMN 271620Z 20003KT 9000 VCSH SCT025 BKN040 BKN110 10/09 Q0994 RESHRA BLU BLU TEMPO GRN
17:20
M
10 °C 8 km 2.800 ft 220° 220° 8 kt METAR ETMN 271520Z 22008KT 8000 SHRA FEW007 BKN028 BKN045 10/09 Q0994 BLU BLU TEMPO GRN
17:01
V
9 °C 8 km 4.500 ft 220° 220° 8 kt METAR ETMN 271501Z 22008KT 8000 -SHRA FEW007 SCT020 BKN045 09/09 Q0994 RERA BLU BLU TEMPO GRN
16:43
M
10 °C 6 km 2.000 ft 220° 220° 7 kt METAR ETMN 271443Z 22007KT 6000 RA FEW007 BKN020 BKN045 10/09 Q0994 WHT BLU TEMPO GRN
16:20
M
10 °C 10 km+ 2.300 ft 220° 220° 6 kt METAR ETMN 271420Z 22006KT 9999 -RA FEW007 BKN023 BKN045 10/09 Q0994 RESHRA WHT BLU TEMPO GRN
15:39
M
10 °C 8 km 2.700 ft 250° 250° 6 kt METAR ETMN 271339Z 25006KT 8000 SHRA FEW004 SCT007 BKN027 10/09 Q0994 BLU BLU TEMPO GRN
15:20
I
11 °C 7 km 700 ft 250° 250° 5 kt METAR ETMN 271320Z 25005KT 7000 -SHRA FEW004 BKN007 BKN027 11/10 Q0993 GRN BLU TEMPO GRN
14:20
V
12 °C 10 km+ 3.000 ft 300° 300° 6 kt METAR ETMN 271220Z 30006KT 9999 -SHRA SCT007 BKN030 BKN120 12/09 Q0993 BLU BLU TEMPO GRN
13:20
V
10 °C 10 km+ 4.000 ft 300° 300° 6 kt METAR ETMN 271120Z 30006KT 9999 -RADZ FEW006 SCT020 BKN040 10/09 Q0993 RERA BLU BLU TEMPO GRN
12:44
V
10 °C 8 km 3.000 ft 260° 260° 4 kt METAR ETMN 271044Z 26004KT 8000 -RA FEW006 FEW015CB BKN030 OVC050 10/09 Q0993 RERA BLU BLU TEMPO GRN
12:20
M
10 °C 8 km 2.000 ft 260° 260° 6 kt METAR ETMN 271020Z 26006KT 8000 -RA FEW006 BKN020 BKN040 10/10 Q0993 RERA WHT BLU TEMPO GRN
12:13
V
10 °C 10 km+ 6.000 ft 250° 250° 6 kt METAR ETMN 271013Z 25006KT 9999 -RA FEW006 SCT020 BKN060 10/10 Q0993 RERA BLU BLU TEMPO GRN
11:20
M
10 °C 6 km 3.000 ft 250° 250° 4 kt METAR ETMN 270920Z 25004KT 6000 RA FEW006 SCT018 BKN030 10/10 Q0992 WHT BLU TEMPO GRN
10:49
M
10 °C 7 km 4.000 ft 260° 260° 4 kt METAR ETMN 270849Z 26004KT 7000 RA FEW006 BKN040 10/09 Q0992 WHT BLU TEMPO GRN
10:20
V
10 °C 8 km 3.000 ft 240° 240° 5 kt METAR ETMN 270820Z 24005KT 8000 RA FEW006 BKN030 10/10 Q0992 BLU BLU TEMPO GRN
09:42
M
10 °C 6 km 4.000 ft 250° 250° 6 kt METAR ETMN 270742Z 25006KT 6000 RA FEW006 SCT015 BKN040 10/09 Q0992 WHT BLU TEMPO GRN
09:20
V
10 °C 8 km 3.000 ft 300° 300° 5 kt METAR ETMN 270720Z 30005KT 8000 RA SCT006 SCT015 BKN030 10/09 Q0992 BLU BLU TEMPO GRN
09:04
M
10 °C 8 km 1.500 ft 250° 250° 6 kt METAR ETMN 270704Z 25006KT 8000 RA SCT008 BKN015 BKN030 10/09 Q0991 WHT BLU TEMPO GRN
08:20
V
10 °C 10 km+ 4.300 ft 240° 240° 3 kt METAR ETMN 270620Z 24003KT 9999 -RA FEW008 SCT030 BKN043 10/09 Q0991 BLU BLU TEMPO GRN
07:20
V
10 °C 10 km+ 3.500 ft 280° 280° 4 kt METAR ETMN 270520Z 28004KT 9999 -RA FEW008 BKN035 10/10 Q0991 BLU BLU TEMPO GRN
06:20
V
10 °C 10 km+ 4.000 ft 340° 340° 3 kt METAR ETMN 270420Z 34003KT 9999 -RA FEW008 BKN040 10/10 Q0990 BLU BLU TEMPO GRN
05:20
V
10 °C 8 km 5.000 ft 330° 330° 5 kt METAR ETMN 270320Z 33005KT 8000 -RA FEW008 BKN050 10/10 Q0990 BLU
04:20
V
11 °C 10 km+ 4.500 ft 300° 300° 6 kt METAR ETMN 270220Z 30006KT 9999 -SHRA FEW009TCU BKN045 11/10 Q0991 BLU
03:20
V
11 °C 10 km+ 3.900 ft 260° 260° 2 kt METAR ETMN 270120Z 26002KT 9999 FEW012 BKN039 11/09 Q0991 BLU
02:59
V
11 °C 10 km+ 3.800 ft 300° 300° 2 kt METAR ETMN 270059Z 30002KT 9999 SCT007 BKN038 11/10 Q0991 BLU
02:20
I
11 °C 8 km 600 ft 250° 250° 4 kt METAR ETMN 270020Z 25004KT 8000 BKN006 11/10 Q0991 YLO
01:20
M
11 °C 8 km 1.200 ft 220° 220° 5 kt METAR ETMN 262320Z 22005KT 8000 FEW005 BKN012 11/10 Q0991 GRN
00:20
M
11 °C 8 km 1.000 ft 210° 210° 7 kt METAR ETMN 262220Z 21007KT 8000 FEW005 BKN010 BKN040 11/10 Q0992 GRN

26 września 2022

Czas Kod Pogoda Temp. Widoczność Sufit Wiatr METAR/SPECI
23:51
I
11 °C 7 km 500 ft 210° 210° 7 kt METAR ETMN 262151Z 21007KT 7000 BKN005 11/10 Q0992 YLO
23:20
I
11 °C 10 km+ 700 ft 210° 210° 8 kt METAR ETMN 262120Z 21008KT 9999 BKN007 11/10 Q0992 GRN
22:20
I
11 °C 8 km 700 ft 210° 210° 9 kt METAR ETMN 262020Z 21009KT 8000 BKN007 11/10 Q0993 GRN
21:20
I
11 °C 7 km 700 ft 210° 210° 9 kt METAR ETMN 261920Z 21009KT 7000 -RA BKN007 11/10 Q0993 GRN
20:44
I
11 °C 10 km+ 700 ft 210° 210° 10 kt METAR ETMN 261844Z 21010KT 9999 BKN007 11/10 Q0993 GRN
20:20
I
11 °C 10 km+ 600 ft 210° 210° 11 kt METAR ETMN 261820Z 21011KT 9999 BKN006 11/10 Q0993 YLO
19:20
I
11 °C 9 km 600 ft 200° 200° 10 kt METAR ETMN 261720Z 20010KT 9000 BKN006 11/10 Q0993 YLO FCST CNL
18:48
I
11 °C 9 km 500 ft 200° 200° 11 kt METAR ETMN 261648Z 20011KT 9000 BKN005 11/10 Q0993 YLO GRN TEMPO YLO
18:20
I
11 °C 7 km 500 ft 200° 200° 11 - 22 kt METAR ETMN 261620Z 20011G22KT 7000 -DZ BKN005 11/10 Q0993 REDZ YLO GRN TEMPO YLO
18:11
I
11 °C 7 km 500 ft 200° 200° 12 kt METAR ETMN 261611Z 20012KT 7000 -DZ BKN005 11/10 Q0994 REDZ YLO GRN TEMPO YLO
17:36
I
11 °C 10 km+ 500 ft 200° 200° 13 kt METAR ETMN 261536Z 20013KT 9999 -DZ BKN005 11/10 Q0994 REDZ YLO GRN TEMPO YLO
17:20
I
11 °C 7 km 500 ft 200° 200° 13 kt METAR ETMN 261520Z 20013KT 7000 -DZ BKN005 11/10 Q0994 REDZ YLO GRN TEMPO YLO
Starsze dane

My i osoby trzecie śledzimy twoje zachowanie w internecie na naszej stronie za pomocą plików cookie. Jeśli kontynuujesz, zakładamy, że zgadzasz się z naszą polityką plików cookie. Dowiedz się więcej